Time;durP1;ratioP1;P1;durP2;ratioP2;P2;SDS_P1;SDS_P2;PMS_P1;PMS_P2;Temp;Humidity;BMP_temperature;BMP_pressure;BME280_temperature;BME280_humidity;BME280_pressure;Samples;Min_cycle;Max_cycle;Signal;HPM_P1;HPM_P2
2022/03/22 00:01:32;;;;;;;6.85;5.10;;;;;;;;;;5001568;28;20050;-77
2022/03/22 00:04:02;;;;;;;5.30;4.80;;;;;;;;;;5002644;28;20038;-77
2022/03/22 00:06:32;;;;;;;7.35;6.30;;;;;;;;;;5002817;28;20130;-78
2022/03/22 00:08:59;;;;;;;7.75;5.78;;;;;;;;;;5002617;28;20049;-78
2022/03/22 00:11:27;;;;;;;7.00;6.10;;;;;;;;;;5001017;28;20122;-79
2022/03/22 00:13:55;;;;;;;6.82;5.50;;;;;;;;;;5000212;28;20054;-79
2022/03/22 00:16:22;;;;;;;5.90;5.30;;;;;;;;;;4979283;28;20502;-79
2022/03/22 00:19:10;;;;;;;7.95;5.90;;;;;;;;;;4964172;28;20767;-80
2022/03/22 00:21:37;;;;;;;6.63;5.15;;;;;;;;;;4995994;28;20137;-79
2022/03/22 00:24:05;;;;;;;7.68;5.22;;;;;;;;;;5003167;28;20048;-78
2022/03/22 00:26:32;;;;;;;5.88;5.15;;;;;;;;;;5017937;28;20121;-79
2022/03/22 00:29:00;;;;;;;7.00;6.15;;;;;;;;;;4997894;28;20172;-78
2022/03/22 00:31:30;;;;;;;6.70;5.40;;;;;;;;;;4996309;28;20041;-76
2022/03/22 00:33:57;;;;;;;8.32;5.70;;;;;;;;;;4993590;28;20447;-77
2022/03/22 00:36:25;;;;;;;9.73;5.53;;;;;;;;;;5001763;28;20717;-79
2022/03/22 00:38:53;;;;;;;9.80;5.95;;;;;;;;;;4979146;28;20057;-75
2022/03/22 00:41:20;;;;;;;5.97;4.82;;;;;;;;;;5003502;28;20046;-76
2022/03/22 00:43:47;;;;;;;6.47;4.80;;;;;;;;;;5006920;28;20207;-78
2022/03/22 00:46:15;;;;;;;6.95;5.55;;;;;;;;;;4999507;28;20038;-76
2022/03/22 00:48:47;;;;;;;5.93;4.75;;;;;;;;;;4981012;28;20056;-79
2022/03/22 00:51:15;;;;;;;7.55;5.65;;;;;;;;;;5008638;28;20052;-81
2022/03/22 00:53:45;;;;;;;6.55;5.47;;;;;;;;;;4992700;28;20148;-81
2022/03/22 00:56:12;;;;;;;6.68;5.15;;;;;;;;;;5013808;28;20553;-81
2022/03/22 00:58:39;;;;;;;5.40;4.90;;;;;;;;;;4981053;28;20085;-76
2022/03/22 01:01:07;;;;;;;7.95;5.22;;;;;;;;;;5003335;28;20049;-78
2022/03/22 01:03:35;;;;;;;5.57;4.60;;;;;;;;;;5002900;28;20064;-80
2022/03/22 01:06:02;;;;;;;8.23;5.75;;;;;;;;;;5005688;28;20065;-76
2022/03/22 01:08:30;;;;;;;6.05;5.38;;;;;;;;;;4992761;28;20525;-76
2022/03/22 01:10:57;;;;;;;8.63;5.40;;;;;;;;;;4987944;28;20050;-79
2022/03/22 01:13:27;;;;;;;13.07;6.18;;;;;;;;;;5013761;28;20037;-76
2022/03/22 01:15:55;;;;;;;6.88;5.30;;;;;;;;;;5000301;28;20040;-75
2022/03/22 01:18:24;;;;;;;4.80;4.40;;;;;;;;;;5001533;28;20506;-78
2022/03/22 01:20:52;;;;;;;5.07;4.68;;;;;;;;;;4986477;28;20057;-80
2022/03/22 01:23:19;;;;;;;7.07;5.35;;;;;;;;;;4996755;28;20042;-77
2022/03/22 01:25:48;;;;;;;5.70;5.03;;;;;;;;;;4984047;28;20042;-75
2022/03/22 01:28:16;;;;;;;5.75;5.15;;;;;;;;;;4991393;28;20038;-76
2022/03/22 01:30:43;;;;;;;6.22;5.00;;;;;;;;;;4999513;28;20437;-75
2022/03/22 01:33:15;;;;;;;7.60;5.18;;;;;;;;;;4974872;28;20089;-79
2022/03/22 01:35:42;;;;;;;6.50;4.82;;;;;;;;;;5000697;28;20669;-76
2022/03/22 01:38:10;;;;;;;6.90;5.40;;;;;;;;;;4997531;28;20047;-78
2022/03/22 01:40:38;;;;;;;7.75;5.57;;;;;;;;;;4998582;28;20046;-76
2022/03/22 01:43:06;;;;;;;5.85;4.93;;;;;;;;;;4996443;28;20395;-81
2022/03/22 01:45:33;;;;;;;7.78;5.45;;;;;;;;;;4983376;28;20042;-81
2022/03/22 01:48:01;;;;;;;4.93;4.45;;;;;;;;;;4995804;28;20050;-79
2022/03/22 01:50:29;;;;;;;7.07;5.15;;;;;;;;;;5001748;28;20053;-76
2022/03/22 01:52:58;;;;;;;5.47;4.82;;;;;;;;;;4995575;28;20046;-75
2022/03/22 01:55:25;;;;;;;5.60;4.50;;;;;;;;;;5003234;28;20046;-76
2022/03/22 01:57:54;;;;;;;6.45;5.13;;;;;;;;;;4990393;28;20046;-76
2022/03/22 02:00:22;;;;;;;9.85;5.43;;;;;;;;;;4996780;28;20038;-78
2022/03/22 02:05:56;;;;;;;5.45;4.95;;;;;;;;;;5000356;28;20141;-76
2022/03/22 02:08:26;;;;;;;6.03;5.40;;;;;;;;;;4994939;28;20050;-83
2022/03/22 02:10:55;;;;;;;5.70;4.57;;;;;;;;;;4997921;28;20073;-78
2022/03/22 02:13:22;;;;;;;5.90;5.05;;;;;;;;;;5006951;28;20581;-76
2022/03/22 02:15:53;;;;;;;5.43;4.82;;;;;;;;;;4999677;28;20049;-76
2022/03/22 02:18:20;;;;;;;6.63;5.30;;;;;;;;;;4986711;28;20074;-76
2022/03/22 02:20:48;;;;;;;10.07;5.63;;;;;;;;;;5001146;28;20058;-82
2022/03/22 02:23:19;;;;;;;6.70;4.82;;;;;;;;;;4990370;28;20641;-76
2022/03/22 02:25:50;;;;;;;8.10;5.35;;;;;;;;;;5006844;28;20061;-76
2022/03/22 02:28:20;;;;;;;6.50;5.20;;;;;;;;;;4994429;28;20047;-76
2022/03/22 02:30:52;;;;;;;5.57;5.05;;;;;;;;;;5004397;28;20045;-76
2022/03/22 02:33:20;;;;;;;5.65;4.93;;;;;;;;;;4999732;28;20291;-77
2022/03/22 02:35:48;;;;;;;7.05;5.32;;;;;;;;;;5004807;28;20136;-76
2022/03/22 02:38:15;;;;;;;6.63;5.13;;;;;;;;;;5002579;28;20053;-76
2022/03/22 02:40:43;;;;;;;5.40;4.85;;;;;;;;;;4999403;28;20120;-80
2022/03/22 02:43:11;;;;;;;6.45;5.85;;;;;;;;;;4994777;28;20180;-82
2022/03/22 02:45:38;;;;;;;7.93;5.55;;;;;;;;;;4999078;28;20054;-76
2022/03/22 02:48:06;;;;;;;8.25;6.57;;;;;;;;;;4999968;28;20046;-75
2022/03/22 02:50:33;;;;;;;7.47;5.82;;;;;;;;;;4973573;28;20050;-81
2022/03/22 02:53:01;;;;;;;7.78;6.50;;;;;;;;;;5007609;28;20073;-78
2022/03/22 02:55:28;;;;;;;7.93;5.97;;;;;;;;;;4987397;28;20074;-75
2022/03/22 02:57:56;;;;;;;6.93;5.38;;;;;;;;;;4990232;28;20112;-80
2022/03/22 03:00:24;;;;;;;9.15;5.82;;;;;;;;;;4998554;28;20141;-77
2022/03/22 03:02:52;;;;;;;5.68;4.95;;;;;;;;;;5008000;28;20054;-78
2022/03/22 03:05:20;;;;;;;7.25;5.18;;;;;;;;;;4974523;28;20561;-76
2022/03/22 03:07:48;;;;;;;6.65;5.63;;;;;;;;;;5024031;28;20403;-79
2022/03/22 03:10:16;;;;;;;7.97;6.38;;;;;;;;;;4991039;28;20148;-75
2022/03/22 03:12:43;;;;;;;12.73;6.88;;;;;;;;;;5007414;28;20144;-77
2022/03/22 03:15:11;;;;;;;13.38;8.05;;;;;;;;;;5007243;28;20145;-80
2022/03/22 03:17:39;;;;;;;14.85;10.27;;;;;;;;;;5007453;28;20688;-79
2022/03/22 03:20:07;;;;;;;9.55;7.25;;;;;;;;;;4984745;28;20066;-75
2022/03/22 03:22:35;;;;;;;11.07;7.78;;;;;;;;;;5005145;28;20133;-78
2022/03/22 03:25:03;;;;;;;11.65;8.35;;;;;;;;;;4973262;28;20465;-75
2022/03/22 03:27:32;;;;;;;8.85;6.43;;;;;;;;;;5006366;28;20104;-76
2022/03/22 03:29:59;;;;;;;9.25;7.18;;;;;;;;;;4971144;28;20809;-81
2022/03/22 03:32:27;;;;;;;9.32;6.72;;;;;;;;;;5003563;28;20050;-76
2022/03/22 03:34:54;;;;;;;10.52;6.40;;;;;;;;;;5006185;28;20104;-82
2022/03/22 03:37:24;;;;;;;11.80;8.00;;;;;;;;;;5002565;28;20422;-83
2022/03/22 03:39:51;;;;;;;11.45;8.15;;;;;;;;;;4989686;28;20479;-77
2022/03/22 03:42:19;;;;;;;11.35;8.23;;;;;;;;;;4999413;28;20050;-80
2022/03/22 03:47:34;;;;;;;12.85;7.03;;;;;;;;;;5031477;28;20110;-79
2022/03/22 03:50:05;;;;;;;6.88;5.30;;;;;;;;;;5000692;28;20121;-76
2022/03/22 03:52:33;;;;;;;7.32;5.60;;;;;;;;;;4997896;28;20034;-76
2022/03/22 03:55:01;;;;;;;8.27;6.93;;;;;;;;;;5012769;28;20100;-79
2022/03/22 03:57:29;;;;;;;8.70;7.20;;;;;;;;;;4988342;28;20074;-80
2022/03/22 03:59:56;;;;;;;6.97;5.50;;;;;;;;;;5006930;28;20550;-76
2022/03/22 04:02:24;;;;;;;6.63;5.90;;;;;;;;;;5004440;28;20038;-79
2022/03/22 04:04:55;;;;;;;10.80;5.90;;;;;;;;;;4998703;28;20519;-80
2022/03/22 04:07:41;;;;;;;5.93;5.00;;;;;;;;;;5001540;28;20033;-78
2022/03/22 04:10:27;;;;;;;9.95;5.78;;;;;;;;;;5006916;28;20068;-81
2022/03/22 04:12:55;;;;;;;7.63;5.80;;;;;;;;;;4997725;23;20124;-78
2022/03/22 04:15:23;;;;;;;7.55;6.32;;;;;;;;;;5021739;28;20049;-81
2022/03/22 04:17:52;;;;;;;8.77;7.45;;;;;;;;;;5007316;28;20112;-79
2022/03/22 04:20:20;;;;;;;8.90;6.40;;;;;;;;;;4990848;28;20471;-80
2022/03/22 04:22:47;;;;;;;8.27;5.80;;;;;;;;;;5007597;28;20464;-78
2022/03/22 04:25:32;;;;;;;10.30;6.60;;;;;;;;;;5006556;28;20044;-79
2022/03/22 04:34:07;;;;;;;7.93;6.30;;;;;;;;;;5003497;28;20033;-79
2022/03/22 04:36:35;;;;;;;8.77;6.00;;;;;;;;;;5007025;28;20049;-80
2022/03/22 04:39:02;;;;;;;6.43;5.40;;;;;;;;;;5022092;28;20158;-80
2022/03/22 04:41:30;;;;;;;8.80;6.57;;;;;;;;;;5006465;28;20073;-79
2022/03/22 04:43:57;;;;;;;10.15;5.57;;;;;;;;;;5003964;28;20042;-79
2022/03/22 04:46:25;;;;;;;7.65;6.53;;;;;;;;;;5006056;28;20041;-79
2022/03/22 04:48:53;;;;;;;12.05;8.35;;;;;;;;;;4989648;28;20119;-79
2022/03/22 04:56:54;;;;;;;9.30;7.40;;;;;;;;;;5006887;28;20508;-80
2022/03/22 04:59:24;;;;;;;9.00;7.43;;;;;;;;;;5007749;28;20080;-79
2022/03/22 05:01:52;;;;;;;10.90;7.10;;;;;;;;;;5008492;28;20037;-79
2022/03/22 05:04:19;;;;;;;8.05;5.78;;;;;;;;;;5008829;28;20038;-79
2022/03/22 05:06:47;;;;;;;11.63;7.10;;;;;;;;;;5008544;28;20038;-80
2022/03/22 05:09:15;;;;;;;10.38;6.40;;;;;;;;;;5011759;28;20045;-80
2022/03/22 05:11:42;;;;;;;7.80;6.35;;;;;;;;;;4992590;28;20038;-79
2022/03/22 05:14:10;;;;;;;5.85;5.25;;;;;;;;;;5016083;28;20578;-79
2022/03/22 05:16:39;;;;;;;8.48;6.10;;;;;;;;;;5007019;28;20128;-80
2022/03/22 05:19:06;;;;;;;13.60;7.60;;;;;;;;;;5006016;28;20082;-79
2022/03/22 05:21:34;;;;;;;10.38;7.15;;;;;;;;;;4990650;28;20050;-79
2022/03/22 05:24:01;;;;;;;11.98;8.82;;;;;;;;;;5005437;28;20512;-80
2022/03/22 05:26:29;;;;;;;18.67;11.35;;;;;;;;;;5007037;28;20058;-80
2022/03/22 05:28:57;;;;;;;14.05;10.35;;;;;;;;;;5006874;28;20065;-79
2022/03/22 05:31:25;;;;;;;11.38;9.23;;;;;;;;;;5007026;28;20061;-79
2022/03/22 05:33:53;;;;;;;11.18;8.00;;;;;;;;;;5007824;28;20073;-79
2022/03/22 05:36:20;;;;;;;14.50;9.00;;;;;;;;;;5008481;28;20120;-79
2022/03/22 05:38:48;;;;;;;9.77;8.75;;;;;;;;;;5018235;28;20112;-80
2022/03/22 05:41:15;;;;;;;9.70;8.27;;;;;;;;;;5005804;28;20073;-80
2022/03/22 05:43:43;;;;;;;11.70;8.60;;;;;;;;;;5005209;28;20092;-79
2022/03/22 05:46:10;;;;;;;11.80;8.30;;;;;;;;;;5007418;28;20049;-80
2022/03/22 05:48:38;;;;;;;8.35;7.43;;;;;;;;;;5002924;28;20038;-80
2022/03/22 05:51:05;;;;;;;9.30;7.32;;;;;;;;;;5005736;28;20125;-79
2022/03/22 05:53:33;;;;;;;10.93;8.25;;;;;;;;;;5006995;28;20140;-80
2022/03/22 05:56:00;;;;;;;10.95;8.75;;;;;;;;;;5004547;28;20060;-80
2022/03/22 05:58:28;;;;;;;11.32;8.07;;;;;;;;;;5005485;28;20482;-81
2022/03/22 06:00:56;;;;;;;9.35;8.23;;;;;;;;;;5009821;28;20050;-80
2022/03/22 06:03:23;;;;;;;13.35;9.60;;;;;;;;;;4992575;28;20058;-80
2022/03/22 06:05:52;;;;;;;11.82;8.75;;;;;;;;;;5052616;22;20294;-74
2022/03/22 06:08:19;;;;;;;12.93;9.98;;;;;;;;;;5015120;28;20130;-74
2022/03/22 06:10:47;;;;;;;11.13;9.15;;;;;;;;;;5017537;28;20044;-75
2022/03/22 06:13:15;;;;;;;16.38;9.93;;;;;;;;;;5011741;28;20041;-73
2022/03/22 06:15:43;;;;;;;16.10;9.45;;;;;;;;;;5011066;28;20041;-75
2022/03/22 06:18:11;;;;;;;13.45;9.52;;;;;;;;;;5005127;28;20041;-73
2022/03/22 06:20:42;;;;;;;12.38;10.18;;;;;;;;;;5008925;28;20516;-74
2022/03/22 06:23:10;;;;;;;12.43;9.50;;;;;;;;;;5024220;28;20499;-75
2022/03/22 06:25:39;;;;;;;15.90;10.73;;;;;;;;;;5019654;28;20056;-74
2022/03/22 06:28:06;;;;;;;15.40;12.73;;;;;;;;;;5024378;28;20041;-75
2022/03/22 06:30:34;;;;;;;13.20;11.68;;;;;;;;;;5020928;28;20425;-75
2022/03/22 06:33:07;;;;;;;15.38;10.70;;;;;;;;;;5016451;28;20111;-73
2022/03/22 06:35:35;;;;;;;12.27;9.02;;;;;;;;;;5016820;28;20046;-74
2022/03/22 06:38:03;;;;;;;12.98;10.13;;;;;;;;;;5015121;28;20156;-75
2022/03/22 06:40:33;;;;;;;12.90;9.77;;;;;;;;;;5021441;28;20055;-74
2022/03/22 06:43:03;;;;;;;12.25;9.88;;;;;;;;;;5014498;28;20057;-75
2022/03/22 06:45:35;;;;;;;16.05;11.80;;;;;;;;;;5015125;28;20571;-74
2022/03/22 06:48:03;;;;;;;14.93;10.60;;;;;;;;;;5017690;28;20132;-73
2022/03/22 06:50:31;;;;;;;16.27;11.10;;;;;;;;;;5008426;28;20476;-75
2022/03/22 06:52:58;;;;;;;12.55;10.38;;;;;;;;;;5016957;28;20053;-75
2022/03/22 06:55:26;;;;;;;14.93;10.27;;;;;;;;;;5017054;28;20418;-75
2022/03/22 06:57:56;;;;;;;14.48;9.57;;;;;;;;;;5014832;28;20046;-75
2022/03/22 07:00:27;;;;;;;10.82;9.02;;;;;;;;;;5038481;28;20041;-74
2022/03/22 07:02:55;;;;;;;16.48;9.15;;;;;;;;;;5018805;28;20141;-73
2022/03/22 07:05:23;;;;;;;10.50;8.27;;;;;;;;;;5003952;28;20145;-75
2022/03/22 07:07:50;;;;;;;9.00;7.18;;;;;;;;;;5020018;28;20144;-75
2022/03/22 07:10:18;;;;;;;7.35;6.47;;;;;;;;;;5019656;28;20069;-74
2022/03/22 07:12:53;;;;;;;9.90;7.32;;;;;;;;;;5020033;28;20977;-74
2022/03/22 07:15:27;;;;;;;7.90;6.60;;;;;;;;;;5017464;28;20041;-74
2022/03/22 07:17:55;;;;;;;9.32;7.47;;;;;;;;;;5017945;28;20501;-75
2022/03/22 07:20:23;;;;;;;10.32;7.38;;;;;;;;;;5019151;28;20517;-74
2022/03/22 07:22:50;;;;;;;9.00;7.43;;;;;;;;;;5020113;28;20370;-75
2022/03/22 07:25:18;;;;;;;9.50;7.10;;;;;;;;;;5022843;28;20124;-75
2022/03/22 07:27:46;;;;;;;9.55;7.75;;;;;;;;;;5019492;28;20065;-75
2022/03/22 07:30:14;;;;;;;10.60;7.10;;;;;;;;;;5018888;28;20068;-74
2022/03/22 07:32:45;;;;;;;9.60;7.00;;;;;;;;;;5017774;28;20049;-75
2022/03/22 07:35:14;;;;;;;11.13;7.80;;;;;;;;;;5019924;28;20504;-73
2022/03/22 07:37:42;;;;;;;8.52;7.63;;;;;;;;;;5020995;28;20049;-74
2022/03/22 07:40:10;;;;;;;11.15;7.72;;;;;;;;;;5017490;28;20073;-76
2022/03/22 07:42:38;;;;;;;9.98;7.53;;;;;;;;;;5012470;28;20045;-75
2022/03/22 07:45:06;;;;;;;12.18;7.88;;;;;;;;;;5020065;28;20556;-74
2022/03/22 07:47:34;;;;;;;12.10;7.88;;;;;;;;;;5021758;28;20140;-75
2022/03/22 07:53:06;;;;;;;10.63;8.07;;;;;;;;;;5010675;28;20457;-75
2022/03/22 07:55:44;;;;;;;12.00;7.13;;;;;;;;;;5019551;28;20111;-74
2022/03/22 07:58:11;;;;;;;9.13;7.93;;;;;;;;;;5016074;28;20140;-75
2022/03/22 08:00:41;;;;;;;8.65;7.70;;;;;;;;;;5014910;28;20508;-75
2022/03/22 08:03:12;;;;;;;13.32;7.53;;;;;;;;;;5020479;28;20042;-74
2022/03/22 08:05:40;;;;;;;12.47;8.27;;;;;;;;;;5022188;28;20048;-75
2022/03/22 08:08:08;;;;;;;13.30;7.88;;;;;;;;;;5017088;28;20397;-75
2022/03/22 08:10:55;;;;;;;7.43;6.70;;;;;;;;;;5024642;28;20111;-75
2022/03/22 08:13:23;;;;;;;12.77;8.25;;;;;;;;;;5019573;28;20042;-73
2022/03/22 08:15:50;;;;;;;6.95;6.03;;;;;;;;;;5021420;28;20117;-75
2022/03/22 08:18:18;;;;;;;6.88;6.00;;;;;;;;;;5026651;28;20045;-75
2022/03/22 08:20:45;;;;;;;6.90;6.10;;;;;;;;;;5023857;28;20064;-76
2022/03/22 08:23:13;;;;;;;6.55;5.82;;;;;;;;;;5022896;28;20053;-76
2022/03/22 08:25:43;;;;;;;6.43;5.28;;;;;;;;;;5020334;28;20128;-74
2022/03/22 08:28:11;;;;;;;5.82;5.22;;;;;;;;;;5016232;28;20048;-76
2022/03/22 08:30:40;;;;;;;6.53;5.80;;;;;;;;;;5020273;28;20037;-75
2022/03/22 08:33:09;;;;;;;10.73;6.07;;;;;;;;;;5014651;28;20050;-75
2022/03/22 08:35:38;;;;;;;8.23;6.38;;;;;;;;;;5015181;28;20128;-74
2022/03/22 08:38:06;;;;;;;6.95;6.15;;;;;;;;;;5019815;28;20073;-76
2022/03/22 08:40:33;;;;;;;7.68;6.15;;;;;;;;;;5019374;28;20288;-76
2022/03/22 08:43:05;;;;;;;6.28;5.60;;;;;;;;;;4995783;28;20133;-74
2022/03/22 08:45:33;;;;;;;8.50;7.10;;;;;;;;;;5009337;28;20519;-76
2022/03/22 08:48:02;;;;;;;8.05;5.82;;;;;;;;;;5022706;28;20140;-76
2022/03/22 08:50:29;;;;;;;6.60;5.68;;;;;;;;;;5024827;28;20053;-75
2022/03/22 08:52:57;;;;;;;11.55;5.85;;;;;;;;;;5014178;28;20125;-76
2022/03/22 08:55:25;;;;;;;8.95;6.18;;;;;;;;;;5018394;28;20523;-75
2022/03/22 08:57:53;;;;;;;6.00;5.43;;;;;;;;;;5021581;28;20060;-75
2022/03/22 09:00:21;;;;;;;9.98;5.80;;;;;;;;;;5015911;28;20045;-75
2022/03/22 09:02:49;;;;;;;6.47;5.47;;;;;;;;;;5016808;28;20140;-76
2022/03/22 09:08:06;;;;;;;6.22;5.07;;;;;;;;;;5019544;28;20143;-77
2022/03/22 09:10:34;;;;;;;6.53;5.22;;;;;;;;;;5016203;28;20041;-77
2022/03/22 09:13:02;;;;;;;6.97;5.18;;;;;;;;;;5026675;28;20454;-76
2022/03/22 09:15:30;;;;;;;6.22;5.20;;;;;;;;;;5011254;28;20103;-76
2022/03/22 09:17:58;;;;;;;9.10;5.70;;;;;;;;;;4998281;28;20046;-72
2022/03/22 09:20:29;;;;;;;5.43;4.82;;;;;;;;;;5017221;28;20037;-73
2022/03/22 09:22:57;;;;;;;5.43;4.65;;;;;;;;;;5021514;28;20523;-74
2022/03/22 09:25:25;;;;;;;4.95;4.45;;;;;;;;;;5021165;28;20049;-74
2022/03/22 09:27:53;;;;;;;8.23;4.97;;;;;;;;;;5022393;28;20044;-74
2022/03/22 09:30:21;;;;;;;6.10;4.70;;;;;;;;;;5023874;28;20041;-74
2022/03/22 09:32:48;;;;;;;6.63;4.68;;;;;;;;;;5023355;28;20561;-74
2022/03/22 09:35:19;;;;;;;4.93;4.25;;;;;;;;;;5019285;28;20381;-74
2022/03/22 09:37:48;;;;;;;6.35;5.00;;;;;;;;;;5020715;28;20426;-74
2022/03/22 09:40:17;;;;;;;6.82;4.70;;;;;;;;;;5020648;28;20046;-75
2022/03/22 09:42:45;;;;;;;4.93;4.47;;;;;;;;;;5019956;28;20049;-74
2022/03/22 09:45:17;;;;;;;4.95;4.47;;;;;;;;;;5022523;28;20173;-75
2022/03/22 09:47:45;;;;;;;6.07;4.53;;;;;;;;;;5011697;28;20038;-76
2022/03/22 09:50:14;;;;;;;5.70;4.25;;;;;;;;;;5011624;28;20484;-75
2022/03/22 09:52:42;;;;;;;5.30;4.80;;;;;;;;;;5013241;28;20734;-76
2022/03/22 09:55:10;;;;;;;4.35;3.85;;;;;;;;;;5022256;28;20136;-75
2022/03/22 09:57:39;;;;;;;4.47;4.07;;;;;;;;;;5017402;28;20271;-75
2022/03/22 10:00:07;;;;;;;6.22;4.53;;;;;;;;;;4995243;28;20133;-76
2022/03/22 10:02:41;;;;;;;4.70;4.30;;;;;;;;;;5028383;28;20058;-74
2022/03/22 10:05:21;;;;;;;6.88;4.20;;;;;;;;;;5023910;28;20045;-75
2022/03/22 10:07:58;;;;;;;3.97;3.67;;;;;;;;;;5021807;28;20072;-73
2022/03/22 10:10:26;;;;;;;4.55;3.08;;;;;;;;;;5025133;28;20042;-75
2022/03/22 10:12:58;;;;;;;3.50;3.20;;;;;;;;;;5017539;28;20509;-73
2022/03/22 10:15:33;;;;;;;2.40;2.30;;;;;;;;;;5001569;28;20406;-77
2022/03/22 10:18:02;;;;;;;7.25;2.40;;;;;;;;;;4988797;28;20264;-77
2022/03/22 10:20:29;;;;;;;2.95;2.58;;;;;;;;;;4996671;28;20332;-78
2022/03/22 10:23:01;;;;;;;2.92;2.50;;;;;;;;;;4979420;28;20047;-77
2022/03/22 10:25:33;;;;;;;3.20;2.67;;;;;;;;;;4983469;28;20050;-77
2022/03/22 10:28:02;;;;;;;2.42;2.08;;;;;;;;;;4995349;28;20137;-77
2022/03/22 10:30:30;;;;;;;2.92;2.60;;;;;;;;;;5017072;28;20057;-76
2022/03/22 10:32:58;;;;;;;4.55;2.55;;;;;;;;;;4994665;28;20038;-77
2022/03/22 10:35:27;;;;;;;3.10;2.30;;;;;;;;;;4988690;28;20220;-77
2022/03/22 10:37:56;;;;;;;2.35;2.22;;;;;;;;;;4996389;28;20050;-78
2022/03/22 10:40:24;;;;;;;2.80;2.60;;;;;;;;;;5000075;28;20042;-78
2022/03/22 10:42:52;;;;;;;3.65;2.42;;;;;;;;;;4995142;28;20120;-78
2022/03/22 10:45:19;;;;;;;2.28;2.17;;;;;;;;;;5003583;28;20034;-79
2022/03/22 10:47:47;;;;;;;3.80;1.80;;;;;;;;;;5010764;28;20056;-78
2022/03/22 10:50:14;;;;;;;2.00;1.88;;;;;;;;;;5015584;28;20049;-78
2022/03/22 10:52:52;;;;;;;2.58;2.38;;;;;;;;;;5009321;28;20062;-77
2022/03/22 10:55:21;;;;;;;2.22;1.95;;;;;;;;;;5001344;28;20049;-78
2022/03/22 10:57:53;;;;;;;2.25;2.15;;;;;;;;;;4995381;28;20046;-78
2022/03/22 11:00:21;;;;;;;;;;;;;;;;;;4995615;28;20046;-78
2022/03/22 11:02:49;;;;;;;2.10;2.00;;;;;;;;;;4994629;28;19976;-77
2022/03/22 11:05:20;;;;;;;1.90;1.80;;;;;;;;;;4992848;28;20077;-78
2022/03/22 11:07:49;;;;;;;2.13;2.03;;;;;;;;;;4998879;28;20125;-77
2022/03/22 11:10:18;;;;;;;2.00;1.88;;;;;;;;;;5002178;28;20052;-78
2022/03/22 11:12:45;;;;;;;1.70;1.60;;;;;;;;;;4998644;28;20096;-77
2022/03/22 11:15:14;;;;;;;2.00;1.90;;;;;;;;;;4997411;28;20042;-77
2022/03/22 11:17:42;;;;;;;2.05;1.95;;;;;;;;;;4993601;28;20525;-78
2022/03/22 11:20:10;;;;;;;2.67;1.98;;;;;;;;;;4990886;28;20042;-78
2022/03/22 11:22:43;;;;;;;2.50;2.30;;;;;;;;;;4987509;28;20053;-78
2022/03/22 11:25:18;;;;;;;2.33;1.70;;;;;;;;;;4992572;28;20104;-78
2022/03/22 11:27:57;;;;;;;2.55;2.35;;;;;;;;;;4991699;28;20431;-78
2022/03/22 11:30:26;;;;;;;2.85;2.30;;;;;;;;;;5001913;28;20068;-78
2022/03/22 11:35:58;;;;;;;3.28;2.10;;;;;;;;;;5000684;28;20499;-77
2022/03/22 11:38:44;;;;;;;2.03;1.92;;;;;;;;;;4999374;28;20049;-78
2022/03/22 11:44:17;;;;;;;2.08;1.88;;;;;;;;;;4997583;28;20496;-78
2022/03/22 11:46:45;;;;;;;4.03;2.08;;;;;;;;;;4999842;28;20331;-77
2022/03/22 11:49:15;;;;;;;2.00;1.80;;;;;;;;;;4994670;28;20038;-78
2022/03/22 11:51:47;;;;;;;1.88;1.55;;;;;;;;;;4995213;28;20494;-77
2022/03/22 11:54:14;;;;;;;2.85;2.13;;;;;;;;;;5001671;28;20069;-78
2022/03/22 11:56:46;;;;;;;2.58;1.83;;;;;;;;;;4999235;28;20543;-78
2022/03/22 11:59:16;;;;;;;2.42;1.83;;;;;;;;;;5000995;28;20100;-78
2022/03/22 12:01:57;;;;;;;2.30;1.80;;;;;;;;;;4988996;28;20058;-77
2022/03/22 12:04:41;;;;;;;5.80;1.77;;;;;;;;;;4989543;28;20070;-78
2022/03/22 12:07:10;;;;;;;2.70;2.28;;;;;;;;;;4989696;28;20462;-78
2022/03/22 12:09:38;;;;;;;3.63;1.98;;;;;;;;;;5002242;28;20520;-77
2022/03/22 12:12:06;;;;;;;1.98;1.88;;;;;;;;;;5003707;28;20445;-77
2022/03/22 12:14:34;;;;;;;3.92;1.88;;;;;;;;;;4991406;28;20420;-78
2022/03/22 12:17:03;;;;;;;2.15;1.52;;;;;;;;;;4989554;28;20031;-77
2022/03/22 12:19:31;;;;;;;1.60;1.50;;;;;;;;;;4994733;28;20050;-75
2022/03/22 12:22:00;;;;;;;1.65;1.55;;;;;;;;;;4991011;28;20181;-78
2022/03/22 12:24:33;;;;;;;2.05;1.52;;;;;;;;;;4999054;28;20141;-77
2022/03/22 12:27:05;;;;;;;2.03;1.65;;;;;;;;;;4991523;28;20074;-80
2022/03/22 12:29:37;;;;;;;1.50;1.40;;;;;;;;;;4980450;28;20185;-78
2022/03/22 12:32:30;;;;;;;1.25;1.25;;;;;;;;;;4985388;28;20129;-78
2022/03/22 12:34:58;;;;;;;1.40;1.30;;;;;;;;;;4982388;28;20050;-78
2022/03/22 12:37:25;;;;;;;1.48;1.38;;;;;;;;;;4987469;28;20046;-78
2022/03/22 12:39:53;;;;;;;1.60;1.50;;;;;;;;;;4985712;28;20053;-77
2022/03/22 12:42:26;;;;;;;1.50;1.40;;;;;;;;;;4986503;28;20050;-78
2022/03/22 12:44:53;;;;;;;1.42;1.33;;;;;;;;;;4974817;28;20506;-78
2022/03/22 12:47:33;;;;;;;1.63;1.52;;;;;;;;;;4990592;28;20054;-78
2022/03/22 12:50:00;;;;;;;3.08;1.50;;;;;;;;;;4981138;28;20043;-77
2022/03/22 12:52:29;;;;;;;1.58;1.48;;;;;;;;;;4997638;28;20410;-78
2022/03/22 12:54:56;;;;;;;1.45;1.40;;;;;;;;;;4998898;28;20038;-77
2022/03/22 12:57:24;;;;;;;1.35;1.30;;;;;;;;;;4991884;28;20442;-78
2022/03/22 12:59:51;;;;;;;1.40;1.27;;;;;;;;;;5004677;28;20568;-77
2022/03/22 13:02:19;;;;;;;1.42;1.42;;;;;;;;;;4994231;28;20129;-78
2022/03/22 13:04:50;;;;;;;1.30;1.20;;;;;;;;;;4999946;28;20041;-78
2022/03/22 13:07:21;;;;;;;3.83;1.30;;;;;;;;;;4987224;28;20434;-78
2022/03/22 13:12:36;;;;;;;1.52;1.42;;;;;;;;;;4987751;28;20546;-78
2022/03/22 13:15:10;;;;;;;1.50;1.40;;;;;;;;;;4988154;28;20045;-77
2022/03/22 13:17:38;;;;;;;4.30;1.52;;;;;;;;;;4971787;28;20050;-77
2022/03/22 13:20:13;;;;;;;1.77;1.40;;;;;;;;;;4986213;28;20137;-77
2022/03/22 13:23:00;;;;;;;4.68;1.30;;;;;;;;;;4988117;28;20046;-78
2022/03/22 13:25:33;;;;;;;1.33;1.15;;;;;;;;;;4986932;28;20042;-77
2022/03/22 13:28:01;;;;;;;1.40;1.30;;;;;;;;;;4993679;28;20470;-76
2022/03/22 13:30:30;;;;;;;1.50;1.38;;;;;;;;;;4988931;28;20047;-78
2022/03/22 13:33:08;;;;;;;1.40;1.30;;;;;;;;;;4975770;28;20049;-78
2022/03/22 13:35:35;;;;;;;1.55;1.40;;;;;;;;;;4986998;28;20118;-78
2022/03/22 13:38:06;;;;;;;4.93;1.63;;;;;;;;;;4990435;28;20069;-78
2022/03/22 13:40:37;;;;;;;1.42;1.33;;;;;;;;;;4989331;28;20050;-78
2022/03/22 13:43:04;;;;;;;1.60;1.40;;;;;;;;;;4990913;28;20168;-78
2022/03/22 13:45:32;;;;;;;7.35;1.60;;;;;;;;;;5004568;28;20418;-77
2022/03/22 13:48:02;;;;;;;3.90;1.20;;;;;;;;;;4995599;28;20038;-77
2022/03/22 13:50:30;;;;;;;1.48;1.17;;;;;;;;;;4990653;28;20085;-78
2022/03/22 13:53:17;;;;;;;1.20;1.10;;;;;;;;;;4998939;28;20089;-78
2022/03/22 13:55:47;;;;;;;1.80;1.10;;;;;;;;;;4987621;28;20069;-78
2022/03/22 13:58:16;;;;;;;1.50;1.40;;;;;;;;;;4988643;28;20038;-78
2022/03/22 14:00:50;;;;;;;3.97;1.50;;;;;;;;;;4992873;28;20038;-77
2022/03/22 14:03:18;;;;;;;1.45;1.35;;;;;;;;;;4996637;28;20557;-77
2022/03/22 14:05:47;;;;;;;2.45;1.75;;;;;;;;;;4985700;28;20074;-78
2022/03/22 14:08:16;;;;;;;2.13;1.35;;;;;;;;;;4988786;28;20406;-77
2022/03/22 14:10:46;;;;;;;1.35;1.25;;;;;;;;;;4997482;28;20070;-78
2022/03/22 14:13:18;;;;;;;1.30;1.20;;;;;;;;;;4971768;28;20042;-77
2022/03/22 14:15:46;;;;;;;1.65;1.30;;;;;;;;;;4992961;28;20132;-78
2022/03/22 14:18:13;;;;;;;2.80;1.55;;;;;;;;;;4999600;28;20125;-78
2022/03/22 14:20:41;;;;;;;2.42;1.23;;;;;;;;;;4989257;28;20070;-78
2022/03/22 14:23:08;;;;;;;1.13;1.13;;;;;;;;;;4997030;28;20058;-78
2022/03/22 14:25:36;;;;;;;1.50;1.10;;;;;;;;;;4997934;28;20108;-77
2022/03/22 14:28:05;;;;;;;2.78;1.50;;;;;;;;;;4969027;28;20130;-78
2022/03/22 14:30:33;;;;;;;2.08;1.20;;;;;;;;;;4997815;28;20112;-78
2022/03/22 14:33:08;;;;;;;13.68;2.92;;;;;;;;;;4988392;28;20133;-78
2022/03/22 14:35:55;;;;;;;1.50;1.20;;;;;;;;;;4988958;28;20042;-78
2022/03/22 14:38:22;;;;;;;2.08;1.55;;;;;;;;;;4988043;28;20042;-78
2022/03/22 14:40:51;;;;;;;2.13;1.90;;;;;;;;;;4986655;28;20069;-78
2022/03/22 14:43:23;;;;;;;2.53;1.70;;;;;;;;;;4989199;28;20046;-77
2022/03/22 14:45:52;;;;;;;1.40;1.30;;;;;;;;;;4987697;28;20133;-79
2022/03/22 14:48:20;;;;;;;5.65;1.75;;;;;;;;;;4992943;28;20328;-76
2022/03/22 14:50:48;;;;;;;3.22;1.20;;;;;;;;;;4991189;28;20038;-78
2022/03/22 14:58:54;;;;;;;2.22;1.35;;;;;;;;;;4987485;28;20046;-77
2022/03/22 15:01:23;;;;;;;1.50;1.40;;;;;;;;;;4991240;28;20486;-75
2022/03/22 15:03:53;;;;;;;1.13;1.13;;;;;;;;;;4988195;28;20410;-77
2022/03/22 15:06:22;;;;;;;1.60;1.50;;;;;;;;;;4993865;28;20064;-78
2022/03/22 15:08:50;;;;;;;2.08;1.98;;;;;;;;;;4989945;28;20054;-77
2022/03/22 15:11:17;;;;;;;2.17;1.60;;;;;;;;;;4989821;28;20494;-77
2022/03/22 15:13:44;;;;;;;3.75;1.30;;;;;;;;;;4989564;28;20046;-77
2022/03/22 15:16:12;;;;;;;1.50;1.40;;;;;;;;;;4988346;28;20598;-78
2022/03/22 15:18:40;;;;;;;1.40;1.30;;;;;;;;;;4991315;28;20214;-79
2022/03/22 15:21:08;;;;;;;1.45;1.30;;;;;;;;;;4993295;28;20088;-78
2022/03/22 15:23:38;;;;;;;1.90;1.23;;;;;;;;;;4991461;28;20399;-79
2022/03/22 15:26:07;;;;;;;2.15;1.30;;;;;;;;;;4993423;28;20049;-79
2022/03/22 15:28:35;;;;;;;1.50;1.40;;;;;;;;;;4993087;28;20053;-78
2022/03/22 15:31:04;;;;;;;1.45;1.45;;;;;;;;;;4995174;28;20046;-76